Time;durP1;ratioP1;P1;durP2;ratioP2;P2;SDS_P1;SDS_P2;PMS_P1;PMS_P2;Temp;Humidity;BMP_temperature;BMP_pressure;BME280_temperature;BME280_humidity;BME280_pressure;Samples;Min_cycle;Max_cycle;Signal;HPM_P1;HPM_P2
2021/11/22 00:01:36;;;;;;;2.58;2.05;;;;;;;;;;4937856;28;81875;-52
2021/11/22 00:04:04;;;;;;;2.83;2.28;;;;;;;;;;4933820;28;80602;-52
2021/11/22 00:06:31;;;;;;;2.50;2.10;;;;;;;;;;4938295;28;80223;-52
2021/11/22 00:08:58;;;;;;;2.40;2.00;;;;;;;;;;4941577;28;80908;-52
2021/11/22 00:11:25;;;;;;;2.95;2.45;;;;;;;;;;4941877;28;80686;-51
2021/11/22 00:13:51;;;;;;;2.83;2.35;;;;;;;;;;4935519;28;81439;-49
2021/11/22 00:16:19;;;;;;;3.22;2.30;;;;;;;;;;4936493;28;80243;-49
2021/11/22 00:18:46;;;;;;;3.45;3.15;;;;;;;;;;4944993;28;82297;-52
2021/11/22 00:21:14;;;;;;;3.42;2.50;;;;;;;;;;4940898;28;81679;-51
2021/11/22 00:23:41;;;;;;;4.50;2.40;;;;;;;;;;4936831;28;81545;-52
2021/11/22 00:26:08;;;;;;;2.65;2.42;;;;;;;;;;4936067;28;80442;-52
2021/11/22 00:28:35;;;;;;;2.47;2.28;;;;;;;;;;4937515;28;80930;-53
2021/11/22 00:31:31;;;;;;;4.25;2.47;;;;;;;;;;4919455;28;80412;-49
2021/11/22 00:34:05;;;;;;;2.72;2.40;;;;;;;;;;4942287;28;82744;-52
2021/11/22 00:36:50;;;;;;;2.97;2.60;;;;;;;;;;4938819;28;80242;-52
2021/11/22 00:39:17;;;;;;;3.45;3.00;;;;;;;;;;4945864;28;80990;-53
2021/11/22 00:41:44;;;;;;;4.65;2.83;;;;;;;;;;4940249;28;81816;-53
2021/11/22 00:44:11;;;;;;;3.80;2.67;;;;;;;;;;4935630;28;81492;-53
2021/11/22 00:46:38;;;;;;;3.33;2.55;;;;;;;;;;4938818;28;80278;-53
2021/11/22 00:49:05;;;;;;;4.18;2.30;;;;;;;;;;4943504;28;80956;-54
2021/11/22 00:51:32;;;;;;;3.72;3.22;;;;;;;;;;4942766;28;80758;-53
2021/11/22 00:53:59;;;;;;;3.72;3.20;;;;;;;;;;4938006;28;81279;-53
2021/11/22 00:56:28;;;;;;;2.53;2.30;;;;;;;;;;4936310;28;80241;-53
2021/11/22 00:58:55;;;;;;;2.47;2.25;;;;;;;;;;4940764;28;81000;-54
2021/11/22 01:01:22;;;;;;;3.33;3.03;;;;;;;;;;4941856;28;81781;-53
2021/11/22 01:03:49;;;;;;;3.22;2.67;;;;;;;;;;4940059;28;81494;-54
2021/11/22 01:06:16;;;;;;;4.03;2.78;;;;;;;;;;4937591;28;80254;-52
2021/11/22 01:08:43;;;;;;;5.05;2.97;;;;;;;;;;4938348;28;82097;-51
2021/11/22 01:11:10;;;;;;;3.17;2.88;;;;;;;;;;4942766;28;81678;-54
2021/11/22 01:13:37;;;;;;;3.58;2.17;;;;;;;;;;4942238;28;81411;-56
2021/11/22 01:16:04;;;;;;;3.40;3.08;;;;;;;;;;4938807;28;80338;-56
2021/11/22 01:18:31;;;;;;;3.40;2.80;;;;;;;;;;4937055;28;81871;-56
2021/11/22 01:20:58;;;;;;;3.00;2.60;;;;;;;;;;4941427;28;80793;-56
2021/11/22 01:23:25;;;;;;;3.53;3.10;;;;;;;;;;4938912;28;81789;-56
2021/11/22 01:25:52;;;;;;;2.70;2.35;;;;;;;;;;4937132;28;80156;-56
2021/11/22 01:28:19;;;;;;;3.53;3.15;;;;;;;;;;4943126;28;82684;-56
2021/11/22 01:30:46;;;;;;;3.53;2.85;;;;;;;;;;4932862;28;83381;-55
2021/11/22 01:33:13;;;;;;;3.45;2.85;;;;;;;;;;4926169;28;81719;-55
2021/11/22 01:35:44;;;;;;;2.65;2.30;;;;;;;;;;4926581;28;81766;-55
2021/11/22 01:38:14;;;;;;;4.90;3.95;;;;;;;;;;4925887;28;84685;-55
2021/11/22 01:40:43;;;;;;;5.05;3.25;;;;;;;;;;4926181;28;84653;-54
2021/11/22 01:43:16;;;;;;;4.13;2.97;;;;;;;;;;4926133;28;81842;-55
2021/11/22 01:45:45;;;;;;;4.03;2.73;;;;;;;;;;4946072;28;81824;-55
2021/11/22 01:48:14;;;;;;;4.53;4.03;;;;;;;;;;4944907;28;83663;-55
2021/11/22 01:50:42;;;;;;;5.13;3.70;;;;;;;;;;4945047;28;82401;-54
2021/11/22 01:53:09;;;;;;;3.72;2.92;;;;;;;;;;4945191;28;81973;-54
2021/11/22 01:55:36;;;;;;;5.78;3.22;;;;;;;;;;4945874;28;81120;-53
2021/11/22 01:58:04;;;;;;;4.40;3.30;;;;;;;;;;4944679;28;83768;-52
2021/11/22 02:00:40;;;;;;;2.97;2.35;;;;;;;;;;4945354;28;83440;-52
2021/11/22 02:03:08;;;;;;;4.13;2.97;;;;;;;;;;4943339;28;82811;-52
2021/11/22 02:05:35;;;;;;;3.22;2.53;;;;;;;;;;4945737;28;81812;-52
2021/11/22 02:08:04;;;;;;;4.22;3.15;;;;;;;;;;4947779;28;82746;-51
2021/11/22 02:10:31;;;;;;;3.90;3.05;;;;;;;;;;4947997;28;83361;-52
2021/11/22 02:12:58;;;;;;;4.13;3.08;;;;;;;;;;4948603;28;81800;-53
2021/11/22 02:15:25;;;;;;;4.13;3.33;;;;;;;;;;4948446;28;81915;-54
2021/11/22 02:17:53;;;;;;;4.47;2.90;;;;;;;;;;4948162;28;83408;-53
2021/11/22 02:20:23;;;;;;;3.58;2.90;;;;;;;;;;4948587;28;84703;-53
2021/11/22 02:22:54;;;;;;;5.05;3.70;;;;;;;;;;4948204;28;81923;-54
2021/11/22 02:25:22;;;;;;;5.03;3.70;;;;;;;;;;4948112;28;81769;-54
2021/11/22 02:27:50;;;;;;;4.43;3.35;;;;;;;;;;4930306;28;84636;-54
2021/11/22 02:30:19;;;;;;;4.15;3.75;;;;;;;;;;4928946;28;83430;-52
2021/11/22 02:32:46;;;;;;;4.18;3.60;;;;;;;;;;4928664;28;81843;-53
2021/11/22 02:35:19;;;;;;;3.97;2.97;;;;;;;;;;4929117;28;82325;-54
2021/11/22 02:37:47;;;;;;;4.55;3.33;;;;;;;;;;4928907;28;82450;-55
2021/11/22 02:40:14;;;;;;;3.92;2.90;;;;;;;;;;4930409;28;83580;-55
2021/11/22 02:42:42;;;;;;;4.18;3.13;;;;;;;;;;4943236;28;82384;-55
2021/11/22 02:45:17;;;;;;;4.35;2.95;;;;;;;;;;4943535;28;81102;-53
2021/11/22 02:47:46;;;;;;;4.47;3.25;;;;;;;;;;4935250;28;81756;-53
2021/11/22 02:50:14;;;;;;;4.68;3.08;;;;;;;;;;4928240;28;82190;-55
2021/11/22 02:52:42;;;;;;;5.25;3.72;;;;;;;;;;4928057;28;83273;-56
2021/11/22 02:55:12;;;;;;;4.28;3.50;;;;;;;;;;4928761;28;81878;-55
2021/11/22 02:57:39;;;;;;;4.05;3.28;;;;;;;;;;4928322;28;83821;-55
2021/11/22 03:00:09;;;;;;;5.00;3.67;;;;;;;;;;4928619;28;83602;-54
2021/11/22 03:02:37;;;;;;;4.20;3.80;;;;;;;;;;4937783;28;82103;-57
2021/11/22 03:05:05;;;;;;;3.85;2.88;;;;;;;;;;4947563;28;81939;-56
2021/11/22 03:07:32;;;;;;;4.40;3.30;;;;;;;;;;4948219;28;83800;-56
2021/11/22 03:09:59;;;;;;;4.53;3.58;;;;;;;;;;4946681;28;83162;-56
2021/11/22 03:12:26;;;;;;;4.32;3.72;;;;;;;;;;4946282;28;81783;-56
2021/11/22 03:14:53;;;;;;;4.05;3.28;;;;;;;;;;4947743;28;82248;-56
2021/11/22 03:17:20;;;;;;;3.92;2.90;;;;;;;;;;4945822;28;84549;-58
2021/11/22 03:19:47;;;;;;;4.05;3.40;;;;;;;;;;4945372;28;84302;-58
2021/11/22 03:22:14;;;;;;;5.63;4.13;;;;;;;;;;4928202;28;82153;-58
2021/11/22 03:24:41;;;;;;;3.55;3.25;;;;;;;;;;4928418;28;81887;-58
2021/11/22 03:27:08;;;;;;;3.78;3.33;;;;;;;;;;4928233;28;82731;-58
2021/11/22 03:29:35;;;;;;;3.40;2.90;;;;;;;;;;4928058;28;83804;-58
2021/11/22 03:32:02;;;;;;;3.67;3.10;;;;;;;;;;4928229;28;81789;-58
2021/11/22 03:34:29;;;;;;;4.10;3.40;;;;;;;;;;4928164;28;81143;-58
2021/11/22 03:37:02;;;;;;;4.07;2.92;;;;;;;;;;4927751;28;82600;-58
2021/11/22 03:39:31;;;;;;;3.73;3.23;;;;;;;;;;4927732;28;83423;-58
2021/11/22 03:42:03;;;;;;;3.42;2.95;;;;;;;;;;4926845;28;82743;-58
2021/11/22 03:44:32;;;;;;;3.90;3.20;;;;;;;;;;4928054;28;81700;-58
2021/11/22 03:47:00;;;;;;;3.40;2.80;;;;;;;;;;4927645;28;82323;-58
2021/11/22 03:49:27;;;;;;;3.65;2.70;;;;;;;;;;4927262;28;82315;-58
2021/11/22 03:51:54;;;;;;;3.45;2.95;;;;;;;;;;4928336;28;82670;-58
2021/11/22 03:54:21;;;;;;;3.42;3.13;;;;;;;;;;4927632;28;81887;-59
2021/11/22 03:56:48;;;;;;;3.22;2.80;;;;;;;;;;4927752;28;83717;-59
2021/11/22 03:59:15;;;;;;;2.90;2.60;;;;;;;;;;4927537;28;83411;-58
2021/11/22 04:01:42;;;;;;;3.10;2.80;;;;;;;;;;4927506;28;81812;-58
2021/11/22 04:04:10;;;;;;;4.30;3.33;;;;;;;;;;4927324;28;81959;-58
2021/11/22 04:06:37;;;;;;;4.68;3.70;;;;;;;;;;4927042;28;84696;-58
2021/11/22 04:09:05;;;;;;;3.00;2.65;;;;;;;;;;4926929;28;83319;-58
2021/11/22 04:11:34;;;;;;;3.50;3.05;;;;;;;;;;4927839;28;81730;-58
2021/11/22 04:14:05;;;;;;;3.92;3.50;;;;;;;;;;4927282;28;81842;-58
2021/11/22 04:16:33;;;;;;;5.72;3.00;;;;;;;;;;4927786;28;83534;-59
2021/11/22 04:19:00;;;;;;;3.45;3.13;;;;;;;;;;4927605;28;83503;-57
2021/11/22 04:21:27;;;;;;;2.90;2.45;;;;;;;;;;4926439;28;81962;-56
2021/11/22 04:23:56;;;;;;;3.35;2.65;;;;;;;;;;4927582;28;81160;-57
2021/11/22 04:26:23;;;;;;;5.75;3.53;;;;;;;;;;4940162;28;83492;-57
2021/11/22 04:28:50;;;;;;;3.72;2.67;;;;;;;;;;4946289;28;83468;-57
2021/11/22 04:31:17;;;;;;;2.53;2.30;;;;;;;;;;4945072;28;83057;-56
2021/11/22 04:33:44;;;;;;;3.30;2.78;;;;;;;;;;4946628;28;81837;-57
2021/11/22 04:36:11;;;;;;;3.20;2.75;;;;;;;;;;4945775;28;82429;-57
2021/11/22 04:38:38;;;;;;;3.42;2.72;;;;;;;;;;4938441;28;82396;-57
2021/11/22 04:41:05;;;;;;;3.45;2.72;;;;;;;;;;4935656;28;81936;-56
2021/11/22 04:43:32;;;;;;;3.88;3.08;;;;;;;;;;4931506;28;82087;-57
2021/11/22 04:45:59;;;;;;;2.88;2.63;;;;;;;;;;4927079;28;82217;-57
2021/11/22 04:48:26;;;;;;;3.53;2.80;;;;;;;;;;4927336;28;83450;-57
2021/11/22 04:50:53;;;;;;;3.20;2.40;;;;;;;;;;4926677;28;81592;-56
2021/11/22 04:53:20;;;;;;;3.40;1.98;;;;;;;;;;4926909;28;82314;-56
2021/11/22 04:55:47;;;;;;;3.28;2.63;;;;;;;;;;4926711;28;83571;-55
2021/11/22 04:58:14;;;;;;;3.55;2.60;;;;;;;;;;4926198;28;84274;-56
2021/11/22 05:00:41;;;;;;;2.67;2.35;;;;;;;;;;4925381;28;81919;-56
2021/11/22 05:03:09;;;;;;;5.22;2.80;;;;;;;;;;4926713;28;81683;-56
2021/11/22 05:05:35;;;;;;;3.97;2.85;;;;;;;;;;4926674;28;83618;-56
2021/11/22 05:08:06;;;;;;;2.92;2.20;;;;;;;;;;4926618;28;83586;-51
2021/11/22 05:10:38;;;;;;;3.33;2.40;;;;;;;;;;4926792;28;81721;-55
2021/11/22 05:13:06;;;;;;;3.72;2.80;;;;;;;;;;4927122;28;81003;-56
2021/11/22 05:15:34;;;;;;;2.88;2.58;;;;;;;;;;4926054;28;83765;-56
2021/11/22 05:18:02;;;;;;;3.65;2.13;;;;;;;;;;4927254;28;83523;-56
2021/11/22 05:20:29;;;;;;;2.30;2.10;;;;;;;;;;4925346;28;82793;-57
2021/11/22 05:22:57;;;;;;;2.85;2.45;;;;;;;;;;4926378;28;82275;-57
2021/11/22 05:25:24;;;;;;;4.25;2.38;;;;;;;;;;4926277;28;82711;-56
2021/11/22 05:27:51;;;;;;;3.33;2.22;;;;;;;;;;4926779;28;82411;-56
2021/11/22 05:30:22;;;;;;;2.72;2.10;;;;;;;;;;4925829;28;81961;-57
2021/11/22 05:32:49;;;;;;;3.55;3.25;;;;;;;;;;4926684;28;81636;-57
2021/11/22 05:35:16;;;;;;;3.05;2.55;;;;;;;;;;4926218;28;83767;-56
2021/11/22 05:37:43;;;;;;;3.35;2.83;;;;;;;;;;4945685;28;83598;-57
2021/11/22 05:40:11;;;;;;;3.75;2.15;;;;;;;;;;4945598;28;81839;-57
2021/11/22 05:42:38;;;;;;;2.50;2.30;;;;;;;;;;4947240;28;81910;-58
2021/11/22 05:45:05;;;;;;;6.53;3.53;;;;;;;;;;4942803;28;84753;-57
2021/11/22 05:47:33;;;;;;;3.50;2.53;;;;;;;;;;4929148;28;84493;-56
2021/11/22 05:50:06;;;;;;;3.17;2.33;;;;;;;;;;4929603;28;82004;-57
2021/11/22 05:52:36;;;;;;;3.72;2.90;;;;;;;;;;4929069;28;81899;-56
2021/11/22 05:55:14;;;;;;;3.67;2.22;;;;;;;;;;4930063;28;83584;-57
2021/11/22 05:57:41;;;;;;;4.68;2.55;;;;;;;;;;4947791;28;83336;-56
2021/11/22 06:00:09;;;;;;;2.65;2.22;;;;;;;;;;4948762;28;82334;-53
2021/11/22 06:02:38;;;;;;;3.47;2.50;;;;;;;;;;4939559;28;81259;-54
2021/11/22 06:05:06;;;;;;;3.92;2.67;;;;;;;;;;4967014;28;83796;-62
2021/11/22 06:07:33;;;;;;;3.00;2.38;;;;;;;;;;4933989;28;83385;-58
2021/11/22 06:09:59;;;;;;;2.88;2.20;;;;;;;;;;4928808;28;82745;-58
2021/11/22 06:12:26;;;;;;;2.88;2.20;;;;;;;;;;4929840;28;81884;-58
2021/11/22 06:14:54;;;;;;;4.50;2.40;;;;;;;;;;4941252;28;82702;-50
2021/11/22 06:17:21;;;;;;;3.38;2.40;;;;;;;;;;4937133;28;83712;-56
2021/11/22 06:19:48;;;;;;;3.05;2.45;;;;;;;;;;4936231;28;82615;-56
2021/11/22 06:22:15;;;;;;;3.47;2.33;;;;;;;;;;4937673;28;82171;-54
2021/11/22 06:24:42;;;;;;;4.70;2.38;;;;;;;;;;4936866;28;83043;-53
2021/11/22 06:27:09;;;;;;;3.15;2.38;;;;;;;;;;4941435;28;82468;-52
2021/11/22 06:29:38;;;;;;;5.88;2.80;;;;;;;;;;4941432;28;82056;-55
2021/11/22 06:32:12;;;;;;;4.43;2.72;;;;;;;;;;4938424;28;82001;-59
2021/11/22 06:34:40;;;;;;;4.28;3.05;;;;;;;;;;4937922;28;84374;-49
2021/11/22 06:37:08;;;;;;;7.88;3.63;;;;;;;;;;4942480;28;84295;-51
2021/11/22 06:39:37;;;;;;;8.80;3.53;;;;;;;;;;4938368;28;81823;-52
2021/11/22 06:42:06;;;;;;;6.78;4.20;;;;;;;;;;4939355;28;82339;-47
2021/11/22 06:44:33;;;;;;;13.07;5.15;;;;;;;;;;4944463;28;83580;-59
2021/11/22 06:47:00;;;;;;;6.75;4.40;;;;;;;;;;4939079;28;83677;-56
2021/11/22 06:49:28;;;;;;;9.45;5.20;;;;;;;;;;4934921;28;82172;-63
2021/11/22 06:51:55;;;;;;;17.48;5.82;;;;;;;;;;4940906;28;81180;-59
2021/11/22 06:54:21;;;;;;;16.88;6.82;;;;;;;;;;4932888;28;83640;-58
2021/11/22 06:56:48;;;;;;;6.68;4.80;;;;;;;;;;4943277;28;83690;-56
2021/11/22 06:59:15;;;;;;;16.52;8.48;;;;;;;;;;4937078;28;82872;-57
2021/11/22 07:01:42;;;;;;;15.68;6.72;;;;;;;;;;4938035;28;81872;-54
2021/11/22 07:04:10;;;;;;;13.75;7.22;;;;;;;;;;4939077;28;83846;-59
2021/11/22 07:06:37;;;;;;;8.75;6.45;;;;;;;;;;4942618;28;82418;-57
2021/11/22 07:09:05;;;;;;;10.48;5.90;;;;;;;;;;4947354;28;81991;-54
2021/11/22 07:11:32;;;;;;;43.60;7.32;;;;;;;;;;4939548;28;81904;-54
2021/11/22 07:14:01;;;;;;;10.48;7.65;;;;;;;;;;4949441;28;82482;-48
2021/11/22 07:16:29;;;;;;;10.98;6.47;;;;;;;;;;4938418;28;82483;-53
2021/11/22 07:18:56;;;;;;;13.77;5.68;;;;;;;;;;4941542;28;82754;-51
2021/11/22 07:21:23;;;;;;;20.63;6.70;;;;;;;;;;4935645;28;81954;-56
2021/11/22 07:23:50;;;;;;;14.13;5.90;;;;;;;;;;4935337;28;84578;-54
2021/11/22 07:26:18;;;;;;;21.55;6.65;;;;;;;;;;4937558;28;84477;-50
2021/11/22 07:28:45;;;;;;;10.05;5.75;;;;;;;;;;4940687;28;82194;-52
2021/11/22 07:31:12;;;;;;;32.15;6.68;;;;;;;;;;4937783;28;81928;-52
2021/11/22 07:33:39;;;;;;;34.22;6.43;;;;;;;;;;4936133;28;83726;-57
2021/11/22 07:36:06;;;;;;;13.90;5.82;;;;;;;;;;4926639;28;83709;-58
2021/11/22 07:38:35;;;;;;;12.60;5.35;;;;;;;;;;4929957;28;81919;-59
2021/11/22 07:41:02;;;;;;;16.83;6.28;;;;;;;;;;4931291;28;81139;-60
2021/11/22 07:43:29;;;;;;;18.27;6.00;;;;;;;;;;4948538;28;82377;-64
2021/11/22 07:45:56;;;;;;;15.15;5.68;;;;;;;;;;4929285;28;83262;-63
2021/11/22 07:48:23;;;;;;;8.95;6.38;;;;;;;;;;4925740;28;83276;-64
2021/11/22 07:50:50;;;;;;;13.18;5.95;;;;;;;;;;4926261;28;82000;-63
2021/11/22 07:53:34;;;;;;;10.75;5.55;;;;;;;;;;4937871;28;83774;-61
2021/11/22 07:56:02;;;;;;;11.63;5.03;;;;;;;;;;4943710;28;82810;-61
2021/11/22 07:58:29;;;;;;;9.25;5.53;;;;;;;;;;4943768;28;82120;-61
2021/11/22 08:00:56;;;;;;;9.85;5.05;;;;;;;;;;4944518;28;82163;-63
2021/11/22 08:03:23;;;;;;;9.38;4.97;;;;;;;;;;4941562;28;82665;-64
2021/11/22 08:05:54;;;;;;;7.15;4.97;;;;;;;;;;4924916;28;83407;-65
2021/11/22 08:08:23;;;;;;;10.43;4.97;;;;;;;;;;4926694;28;81893;-60
2021/11/22 08:13:49;;;;;;;7.03;4.90;;;;;;;;;;4941697;28;84755;-63
2021/11/22 08:16:16;;;;;;;8.57;5.45;;;;;;;;;;4927472;28;82184;-65
2021/11/22 08:18:48;;;;;;;9.13;5.07;;;;;;;;;;4927047;28;81867;-61
2021/11/22 08:21:15;;;;;;;6.30;4.63;;;;;;;;;;4934576;28;81925;-65
2021/11/22 08:23:42;;;;;;;6.15;4.32;;;;;;;;;;4945451;28;82622;-61
2021/11/22 08:26:09;;;;;;;7.55;5.50;;;;;;;;;;4945538;28;83586;-65
2021/11/22 08:28:36;;;;;;;6.80;5.07;;;;;;;;;;4946145;28;81764;-65
2021/11/22 08:31:04;;;;;;;7.82;4.35;;;;;;;;;;4946665;28;81185;-65
2021/11/22 08:33:31;;;;;;;6.05;4.55;;;;;;;;;;4944695;28;82552;-63
2021/11/22 08:35:58;;;;;;;8.55;5.97;;;;;;;;;;4926667;28;83392;-63
2021/11/22 08:38:25;;;;;;;6.18;4.22;;;;;;;;;;4926399;28;82807;-65
2021/11/22 08:40:51;;;;;;;5.72;4.43;;;;;;;;;;4937577;28;81954;-65
2021/11/22 08:43:24;;;;;;;6.78;4.40;;;;;;;;;;4931571;28;82732;-65
2021/11/22 08:45:51;;;;;;;7.35;4.30;;;;;;;;;;4926869;28;82462;-65
2021/11/22 08:48:20;;;;;;;7.82;5.32;;;;;;;;;;4927217;28;82081;-65
2021/11/22 08:50:47;;;;;;;5.85;4.57;;;;;;;;;;4926660;28;81896;-63
2021/11/22 08:53:14;;;;;;;6.05;4.57;;;;;;;;;;4926396;28;83601;-65
2021/11/22 08:55:42;;;;;;;9.02;5.97;;;;;;;;;;4927265;28;82138;-63
2021/11/22 08:58:09;;;;;;;8.00;4.65;;;;;;;;;;4926531;28;81809;-63
2021/11/22 09:00:42;;;;;;;5.57;3.88;;;;;;;;;;4926832;28;81985;-64
2021/11/22 09:03:09;;;;;;;6.82;5.05;;;;;;;;;;4930552;28;84716;-64
2021/11/22 09:05:37;;;;;;;6.63;4.18;;;;;;;;;;4927811;28;84470;-65
2021/11/22 09:08:04;;;;;;;6.03;4.45;;;;;;;;;;4926526;28;81831;-63
2021/11/22 09:10:31;;;;;;;5.22;4.32;;;;;;;;;;4926506;28;81870;-62
2021/11/22 09:12:58;;;;;;;6.68;5.75;;;;;;;;;;4930058;28;81840;-65
2021/11/22 09:15:26;;;;;;;6.47;4.50;;;;;;;;;;4925564;28;83238;-61
2021/11/22 09:17:56;;;;;;;7.82;5.45;;;;;;;;;;4926653;28;81908;-64
2021/11/22 09:20:23;;;;;;;5.70;4.70;;;;;;;;;;4926257;28;81133;-64
2021/11/22 09:22:54;;;;;;;7.43;4.78;;;;;;;;;;4926607;28;83744;-63
2021/11/22 09:25:21;;;;;;;5.90;4.32;;;;;;;;;;4925579;28;83316;-64
2021/11/22 09:27:50;;;;;;;6.13;4.25;;;;;;;;;;4926125;28;82718;-65
2021/11/22 09:30:17;;;;;;;5.45;4.35;;;;;;;;;;4927672;28;81859;-63
2021/11/22 09:32:45;;;;;;;6.50;4.45;;;;;;;;;;4928533;28;82864;-64
2021/11/22 09:35:12;;;;;;;5.90;4.55;;;;;;;;;;4926244;28;83045;-61
2021/11/22 09:37:39;;;;;;;5.88;4.80;;;;;;;;;;4926277;28;81799;-63
2021/11/22 09:40:08;;;;;;;6.53;5.68;;;;;;;;;;4926672;28;81847;-63
2021/11/22 09:42:35;;;;;;;8.02;5.35;;;;;;;;;;4926103;28;83773;-65
2021/11/22 09:45:04;;;;;;;6.10;4.65;;;;;;;;;;4927529;28;82078;-63
2021/11/22 09:47:32;;;;;;;5.78;4.18;;;;;;;;;;4925771;28;81822;-65
2021/11/22 09:49:59;;;;;;;5.63;4.43;;;;;;;;;;4927437;28;82761;-64
2021/11/22 09:52:26;;;;;;;5.93;4.82;;;;;;;;;;4936159;28;83374;-66
2021/11/22 09:54:53;;;;;;;4.68;4.18;;;;;;;;;;4930325;28;84523;-53
2021/11/22 09:57:20;;;;;;;6.28;5.03;;;;;;;;;;4934633;28;81727;-69
2021/11/22 09:59:46;;;;;;;6.05;5.05;;;;;;;;;;4941162;28;82332;-65
2021/11/22 10:02:14;;;;;;;4.60;3.83;;;;;;;;;;4934209;28;82834;-69
2021/11/22 10:04:42;;;;;;;7.03;5.00;;;;;;;;;;4935038;28;83366;-70
2021/11/22 10:07:10;;;;;;;6.57;5.20;;;;;;;;;;4944567;28;81700;-67
2021/11/22 10:09:40;;;;;;;6.05;5.03;;;;;;;;;;4944713;28;81122;-65
2021/11/22 10:12:22;;;;;;;7.78;6.97;;;;;;;;;;4938522;28;83561;-63
2021/11/22 10:14:52;;;;;;;8.77;7.22;;;;;;;;;;4936150;28;83335;-70
2021/11/22 10:17:33;;;;;;;9.13;6.57;;;;;;;;;;4940314;28;82752;-66
2021/11/22 10:20:06;;;;;;;8.35;7.13;;;;;;;;;;4937148;28;81965;-66
2021/11/22 10:22:47;;;;;;;8.65;6.32;;;;;;;;;;4932407;28;83688;-61
2021/11/22 10:25:36;;;;;;;9.07;6.80;;;;;;;;;;4928033;28;83394;-66
2021/11/22 10:28:15;;;;;;;8.85;6.20;;;;;;;;;;4932999;28;81887;-64
2021/11/22 10:30:49;;;;;;;9.98;6.70;;;;;;;;;;4935103;28;81698;-65
2021/11/22 10:33:21;;;;;;;7.88;5.97;;;;;;;;;;4943263;28;82613;-66
2021/11/22 10:35:52;;;;;;;8.15;7.35;;;;;;;;;;4930770;28;83459;-59
2021/11/22 10:38:31;;;;;;;7.07;6.32;;;;;;;;;;4939842;28;81859;-60
2021/11/22 10:41:05;;;;;;;8.57;7.38;;;;;;;;;;4935901;28;82203;-61
2021/11/22 12:12:56;;;;;;;9.32;7.60;;;;;;;;;;5006647;28;80845;-68
2021/11/22 12:15:36;;;;;;;8.07;7.22;;;;;;;;;;4988361;28;81832;-76
2021/11/22 12:18:26;;;;;;;5.78;5.18;;;;;;;;;;4998168;28;81901;-74
2021/11/22 12:21:20;;;;;;;6.05;4.90;;;;;;;;;;4990397;28;80360;-73
2021/11/22 12:23:53;;;;;;;4.88;4.40;;;;;;;;;;4985611;28;81689;-75
2021/11/22 12:26:36;;;;;;;3.80;3.50;;;;;;;;;;4997468;28;80694;-72
2021/11/22 12:29:05;;;;;;;3.70;3.40;;;;;;;;;;4993318;28;81697;-72
2021/11/22 12:31:40;;;;;;;4.00;3.60;;;;;;;;;;4998783;28;80292;-68
2021/11/22 12:34:31;;;;;;;3.92;3.63;;;;;;;;;;4992002;28;81468;-67
2021/11/22 12:36:58;;;;;;;5.65;4.38;;;;;;;;;;4994768;28;81647;-67
2021/11/22 12:39:26;;;;;;;6.18;4.90;;;;;;;;;;5000757;28;81507;-66
2021/11/22 12:42:13;;;;;;;7.75;5.28;;;;;;;;;;4998737;28;80954;-67
2021/11/22 12:44:40;;;;;;;6.22;5.47;;;;;;;;;;4990884;28;80724;-68
2021/11/22 12:47:11;;;;;;;6.13;5.28;;;;;;;;;;4997047;28;81924;-66
2021/11/22 12:49:44;;;;;;;8.93;5.97;;;;;;;;;;4998993;28;81554;-67
2021/11/22 12:52:11;;;;;;;7.70;6.60;;;;;;;;;;5006616;28;80086;-68
2021/11/22 12:54:56;;;;;;;8.27;6.47;;;;;;;;;;4994285;28;81893;-69
2021/11/22 12:57:29;;;;;;;6.65;5.65;;;;;;;;;;5003133;28;80723;-71
2021/11/22 13:00:20;;;;;;;9.93;6.38;;;;;;;;;;5005115;28;81121;-76
2021/11/22 13:02:58;;;;;;;7.70;6.00;;;;;;;;;;5011977;28;80562;-84
2021/11/22 13:05:52;;;;;;;7.80;6.38;;;;;;;;;;5008805;28;82407;-74
2021/11/22 13:08:19;;;;;;;7.50;5.50;;;;;;;;;;5001272;28;81567;-80
2021/11/22 13:10:58;;;;;;;8.02;5.43;;;;;;;;;;5004200;28;81591;-76
2021/11/22 13:16:03;;;;;;;5.82;5.28;;;;;;;;;;5001428;28;82055;-76
2021/11/22 13:18:32;;;;;;;6.65;5.78;;;;;;;;;;5002048;28;81574;-74
2021/11/22 13:21:05;;;;;;;6.53;5.80;;;;;;;;;;4997759;28;81633;-76
2021/11/22 13:23:37;;;;;;;7.82;6.78;;;;;;;;;;4998921;28;80221;-77
2021/11/22 13:26:16;;;;;;;7.13;5.55;;;;;;;;;;4996402;28;82398;-76
2021/11/22 13:28:48;;;;;;;7.30;5.10;;;;;;;;;;4986759;28;80954;-78
2021/11/22 13:31:15;;;;;;;6.80;5.93;;;;;;;;;;4990614;28;81605;-76
2021/11/22 13:33:43;;;;;;;8.98;5.95;;;;;;;;;;4996597;28;82028;-71
2021/11/22 13:36:10;;;;;;;8.68;6.50;;;;;;;;;;5011752;28;82136;-72
2021/11/22 13:38:41;;;;;;;6.85;6.03;;;;;;;;;;4991281;28;81613;-73
2021/11/22 13:41:16;;;;;;;8.98;8.00;;;;;;;;;;4980813;28;81462;-74
2021/11/22 13:43:44;;;;;;;8.95;7.20;;;;;;;;;;4992095;28;80631;-77
2021/11/22 13:46:14;;;;;;;7.25;6.55;;;;;;;;;;4992435;28;81363;-69
2021/11/22 13:48:53;;;;;;;6.57;5.55;;;;;;;;;;4991946;28;81853;-73
2021/11/22 13:51:38;;;;;;;5.72;5.13;;;;;;;;;;4988599;28;80240;-73
2021/11/22 13:54:26;;;;;;;5.47;4.93;;;;;;;;;;4992242;28;80161;-72
2021/11/22 13:57:00;;;;;;;5.05;4.55;;;;;;;;;;4993844;28;81938;-70
2021/11/22 13:59:32;;;;;;;6.18;5.57;;;;;;;;;;4990477;28;82110;-72
2021/11/22 14:02:04;;;;;;;6.05;5.45;;;;;;;;;;4984847;28;81534;-72
2021/11/22 14:04:35;;;;;;;7.43;6.63;;;;;;;;;;4989317;28;80593;-71
2021/11/22 14:07:13;;;;;;;12.35;8.07;;;;;;;;;;4999091;28;81082;-72
2021/11/22 14:09:40;;;;;;;6.82;6.05;;;;;;;;;;4993396;28;81860;-74
2021/11/22 14:12:08;;;;;;;7.22;5.55;;;;;;;;;;4984818;28;80322;-72
2021/11/22 14:14:46;;;;;;;5.50;4.90;;;;;;;;;;4990031;28;80374;-71
2021/11/22 14:17:21;;;;;;;6.35;5.75;;;;;;;;;;4995201;28;81930;-71
2021/11/22 14:20:07;;;;;;;5.13;4.63;;;;;;;;;;4982996;28;80511;-69
2021/11/22 14:22:49;;;;;;;5.40;4.78;;;;;;;;;;4981927;28;81991;-67
2021/11/22 14:25:20;;;;;;;4.82;4.35;;;;;;;;;;4986985;28;80076;-68
2021/11/22 14:27:48;;;;;;;5.95;4.80;;;;;;;;;;4985414;28;81082;-68
2021/11/22 14:30:16;;;;;;;5.68;5.15;;;;;;;;;;4992397;28;80708;-68
2021/11/22 14:32:45;;;;;;;5.15;4.25;;;;;;;;;;4982332;28;81594;-69
2021/11/22 14:35:16;;;;;;;6.07;5.50;;;;;;;;;;4979875;28;80390;-70
2021/11/22 14:37:45;;;;;;;7.68;5.68;;;;;;;;;;4987599;28;81902;-68
2021/11/22 14:40:12;;;;;;;5.35;4.85;;;;;;;;;;4988062;28;80790;-69
2021/11/22 14:42:39;;;;;;;5.07;4.57;;;;;;;;;;4986949;28;81572;-71
2021/11/22 14:45:08;;;;;;;6.25;5.65;;;;;;;;;;4982000;28;80350;-69
2021/11/22 14:47:38;;;;;;;6.35;5.55;;;;;;;;;;4988434;28;82188;-70
2021/11/22 14:50:23;;;;;;;15.63;7.85;;;;;;;;;;4986601;28;81691;-71
2021/11/22 14:53:13;;;;;;;7.78;6.18;;;;;;;;;;4986026;28;81802;-73
2021/11/22 14:55:40;;;;;;;6.72;5.07;;;;;;;;;;4979722;28;80612;-70
2021/11/22 14:58:08;;;;;;;7.82;5.18;;;;;;;;;;4981318;28;82120;-80
2021/11/22 15:00:36;;;;;;;9.70;6.07;;;;;;;;;;4975316;28;82675;-70
2021/11/22 15:03:29;;;;;;;7.40;5.30;;;;;;;;;;4986521;28;81469;-74
2021/11/22 15:05:57;;;;;;;4.80;4.40;;;;;;;;;;4986410;28;80096;-73
2021/11/22 15:08:27;;;;;;;4.75;4.30;;;;;;;;;;4986739;28;82034;-73
2021/11/22 15:10:59;;;;;;;4.00;3.65;;;;;;;;;;4985662;28;82108;-76
2021/11/22 15:13:35;;;;;;;5.72;4.78;;;;;;;;;;4985646;28;81526;-70
2021/11/22 15:16:06;;;;;;;9.18;5.45;;;;;;;;;;4973767;28;80071;-70
2021/11/22 15:18:33;;;;;;;4.82;4.05;;;;;;;;;;4989988;28;82165;-71
2021/11/22 15:21:00;;;;;;;5.50;5.05;;;;;;;;;;4978879;28;80879;-69
2021/11/22 15:23:27;;;;;;;5.35;4.85;;;;;;;;;;4970000;28;80643;-68
2021/11/22 15:25:58;;;;;;;4.65;4.25;;;;;;;;;;4975299;28;80301;-74
2021/11/22 15:28:26;;;;;;;5.60;5.05;;;;;;;;;;4987730;28;81887;-68
2021/11/22 15:30:59;;;;;;;6.68;4.93;;;;;;;;;;4982773;28;80743;-75
2021/11/22 15:33:26;;;;;;;4.65;4.25;;;;;;;;;;4973306;28;81616;-71
2021/11/22 15:35:53;;;;;;;5.07;4.47;;;;;;;;;;4978759;28;80308;-71
2021/11/22 15:38:20;;;;;;;7.05;5.43;;;;;;;;;;4976982;28;81971;-74
2021/11/22 15:40:47;;;;;;;6.97;5.47;;;;;;;;;;4973208;28;81650;-73
2021/11/22 15:43:13;;;;;;;5.57;4.80;;;;;;;;;;4985642;28;81712;-71
2021/11/22 15:45:41;;;;;;;5.53;5.03;;;;;;;;;;4978612;28;80099;-69
2021/11/22 15:48:08;;;;;;;6.97;5.95;;;;;;;;;;4969838;28;81872;-72
2021/11/22 15:50:35;;;;;;;6.18;5.43;;;;;;;;;;4986397;28;80676;-76
2021/11/22 15:53:03;;;;;;;7.10;5.32;;;;;;;;;;4985639;28;81233;-73
2021/11/22 15:55:30;;;;;;;8.20;6.85;;;;;;;;;;4974858;28;80550;-74
2021/11/22 15:57:57;;;;;;;6.07;5.45;;;;;;;;;;4980602;28;81571;-76
2021/11/22 16:00:27;;;;;;;8.02;5.07;;;;;;;;;;4980090;28;81863;-75
2021/11/22 16:02:54;;;;;;;6.55;4.80;;;;;;;;;;4990840;28;83180;-72
2021/11/22 16:05:21;;;;;;;6.70;5.50;;;;;;;;;;4985682;28;80276;-73
2021/11/22 16:07:48;;;;;;;6.35;5.72;;;;;;;;;;4985794;28;82237;-70
2021/11/22 16:10:15;;;;;;;17.25;10.63;;;;;;;;;;4985119;28;80431;-72
2021/11/22 16:12:41;;;;;;;13.00;9.65;;;;;;;;;;4999051;28;82465;-72
2021/11/22 16:15:08;;;;;;;11.07;8.88;;;;;;;;;;4979560;28;81080;-69
2021/11/22 16:17:35;;;;;;;7.82;5.90;;;;;;;;;;4985631;28;82073;-69
2021/11/22 16:20:03;;;;;;;5.22;4.57;;;;;;;;;;4986112;28;81893;-69
2021/11/22 16:22:30;;;;;;;5.80;4.90;;;;;;;;;;4984899;28;80676;-68
2021/11/22 16:24:57;;;;;;;4.30;3.90;;;;;;;;;;4984208;28;80465;-69
2021/11/22 16:27:24;;;;;;;5.15;4.63;;;;;;;;;;5032951;28;83761;-70
2021/11/22 16:29:51;;;;;;;5.28;4.75;;;;;;;;;;5016856;28;81065;-66